TAF Text Data
IDs:
Format:
Raw Decoded Include METAR

Data at: 2055 UTC 21 Sep 2021

METAR for:KMKT (Mankato Rgnl, MN, US)
Text:KMKT 211956Z AUTO 32015G22KT 10SM FEW050 18/06 A3023 RMK AO2 SLP241 T01830056
Temperature: 18.3°C ( 65°F)
Dewpoint: 5.6°C ( 42°F) [RH = 43%]
Pressure (altimeter):30.23 inches Hg (1023.8 mb) [Sea level pressure: 1024.1 mb]
Winds:from the NW (320 degrees) at 17 MPH (15 knots; 7.7 m/s) gusting to 25 MPH (22 knots; 11.3 m/s)
Visibility:10 or more sm (16+ km)
Ceiling:at least 12,000 feet AGL
Clouds: few clouds at 5000 feet AGL
QC Flag:automated observation with no human augmentation

TAF for:KMKT (Mankato Rgnl, MN, US) issued at 1720 UTC 21 Sep 2021
Text:KMKT 211720Z 2118/2218 33012G19KT P6SM FEW050 SCT150
Forecast period:1800 UTC 21 September 2021 to 0000 UTC 22 September 2021
Forecast type:FROM: standard forecast or significant change
Winds:from the NNW (330 degrees) at 14 MPH (12 knots; 6.2 m/s) gusting to 22 MPH (19 knots; 9.8 m/s)
Visibility:6 or more sm (10+ km)
Ceiling:at least 12,000 feet AGL
Clouds: few clouds at 5000 feet AGL, scattered clouds at 15000 feet AGL
Text:FM220000 34006KT P6SM FEW250
Forecast period:0000 to 1800 UTC 22 September 2021
Forecast type:FROM: standard forecast or significant change
Winds:from the NNW (340 degrees) at 7 MPH (6 knots; 3.1 m/s)
Visibility:6 or more sm (10+ km)
Ceiling:at least 12,000 feet AGL
Clouds: few clouds at 25000 feet AGL